createdAt,value
2019-01-18T00:02:04.997Z,78.74
2019-01-18T00:04:36.246Z,78.96
2019-01-18T00:07:07.834Z,79.02
2019-01-18T00:09:39.407Z,79.02
2019-01-18T00:12:10.901Z,79.19
2019-01-18T00:14:42.543Z,78.43
2019-01-18T00:17:13.813Z,77.72
2019-01-18T00:19:45.455Z,78.14
2019-01-18T00:22:16.954Z,78.14
2019-01-18T00:24:48.683Z,78.71
2019-01-18T00:27:19.891Z,78.71
2019-01-18T00:29:51.374Z,78.63
2019-01-18T00:32:22.553Z,78.28
2019-01-18T00:34:53.865Z,78.85
2019-01-18T00:37:25.265Z,79.26
2019-01-18T00:39:56.630Z,78.51
2019-01-18T00:42:28.045Z,79.03
2019-01-18T00:45:03.545Z,79.03
2019-01-18T00:47:35.211Z,79.10
2019-01-18T00:50:09.073Z,79.73
2019-01-18T00:52:40.361Z,79.63
2019-01-18T00:55:13.099Z,78.78
2019-01-18T00:57:44.964Z,79.03
2019-01-18T01:00:19.805Z,78.42
2019-01-18T01:02:51.387Z,78.42
2019-01-18T01:05:22.847Z,78.75
2019-01-18T01:07:54.047Z,78.56
2019-01-18T01:10:25.612Z,78.56
2019-01-18T01:12:57.334Z,78.85
2019-01-18T01:15:28.710Z,78.53
2019-01-18T01:17:59.921Z,78.14
2019-01-18T01:20:31.388Z,78.14
2019-01-18T01:23:02.833Z,79.00
2019-01-18T01:25:35.338Z,78.39
2019-01-18T01:28:06.890Z,78.39
2019-01-18T01:30:38.481Z,78.93
2019-01-18T01:33:09.621Z,78.92
2019-01-18T01:35:41.054Z,79.33
2019-01-18T01:38:12.432Z,78.68
2019-01-18T01:40:44.313Z,78.68
2019-01-18T01:43:15.770Z,79.03
2019-01-18T01:45:47.085Z,78.96
2019-01-18T01:48:18.614Z,78.89
2019-01-18T01:50:50.083Z,78.79
2019-01-18T01:53:21.348Z,78.79
2019-01-18T01:55:52.594Z,78.52
2019-01-18T01:58:23.907Z,78.52
2019-01-18T02:00:55.380Z,78.37
2019-01-18T02:03:26.810Z,78.37
2019-01-18T02:05:58.139Z,78.78
2019-01-18T02:08:29.404Z,78.07
2019-01-18T02:11:01.535Z,77.84
2019-01-18T02:13:32.807Z,77.48
2019-01-18T02:16:04.431Z,77.25
2019-01-18T02:18:36.094Z,77.73
2019-01-18T02:21:08.004Z,77.24
2019-01-18T02:23:39.351Z,77.50
2019-01-18T02:26:11.794Z,70.08
2019-01-18T02:28:43.647Z,67.69
2019-01-18T02:31:14.701Z,67.69
2019-01-18T02:33:47.054Z,66.00
2019-01-18T02:36:18.197Z,65.95
2019-01-18T02:38:49.523Z,66.17
2019-01-18T02:41:21.116Z,67.75
2019-01-18T02:43:52.696Z,68.13
2019-01-18T02:46:24.389Z,67.88
2019-01-18T02:48:55.765Z,67.80
2019-01-18T02:51:27.367Z,68.37
2019-01-18T02:53:59.042Z,68.37
2019-01-18T02:56:30.431Z,67.74
2019-01-18T02:59:01.790Z,67.69
2019-01-18T03:01:33.361Z,67.69
2019-01-18T03:04:05.138Z,65.45
2019-01-18T03:06:37.180Z,65.13
2019-01-18T03:09:10.686Z,65.13
2019-01-18T03:11:42.695Z,64.98
2019-01-18T03:14:14.097Z,64.98
2019-01-18T03:16:46.566Z,64.95
2019-01-18T03:19:18.323Z,64.57
2019-01-18T03:21:49.710Z,64.77
2019-01-18T03:24:21.186Z,64.41
2019-01-18T03:26:52.823Z,64.41
2019-01-18T03:29:24.184Z,64.44
2019-01-18T03:31:55.620Z,65.65
2019-01-18T03:34:27.022Z,65.65
2019-01-18T03:36:59.038Z,66.29
2019-01-18T03:39:30.374Z,66.54
2019-01-18T03:42:02.610Z,66.73
2019-01-18T03:44:33.521Z,66.73
2019-01-18T03:47:04.965Z,67.12
2019-01-18T03:49:36.012Z,67.78
2019-01-18T03:52:07.360Z,67.78
2019-01-18T03:54:38.262Z,67.48
2019-01-18T03:57:09.478Z,67.57
2019-01-18T03:59:40.895Z,67.71
2019-01-18T04:02:13.396Z,67.67
2019-01-18T04:04:44.842Z,67.67
2019-01-18T04:07:16.343Z,67.76
2019-01-18T04:09:47.710Z,67.31
2019-01-18T04:12:19.418Z,67.05
2019-01-18T04:14:51.164Z,66.77
2019-01-18T04:17:22.782Z,66.77
2019-01-18T04:19:54.089Z,66.49
2019-01-18T04:22:25.825Z,66.64
2019-01-18T04:24:57.015Z,66.45
2019-01-18T04:27:29.463Z,66.45
2019-01-18T04:30:01.136Z,66.01
2019-01-18T04:32:32.602Z,66.44
2019-01-18T04:35:03.927Z,66.84
2019-01-18T04:37:35.550Z,66.59
2019-01-18T04:40:09.411Z,66.43
2019-01-18T04:42:41.508Z,66.43
2019-01-18T04:45:13.590Z,66.81
2019-01-18T04:47:44.641Z,67.03
2019-01-18T04:50:21.410Z,66.67
2019-01-18T04:52:52.723Z,66.67
2019-01-18T04:55:24.677Z,66.72
2019-01-18T04:57:56.004Z,66.90
2019-01-18T05:00:29.332Z,67.59
2019-01-18T05:03:01.006Z,67.59
2019-01-18T05:05:32.795Z,67.66
2019-01-18T05:08:04.561Z,67.66
2019-01-18T05:10:36.260Z,67.43
2019-01-18T05:13:08.258Z,67.43
2019-01-18T05:15:40.100Z,66.52
2019-01-18T05:18:11.531Z,66.51
2019-01-18T05:20:42.779Z,65.55
2019-01-18T05:23:14.076Z,65.55
2019-01-18T05:25:45.599Z,66.11
2019-01-18T05:28:17.681Z,66.30
2019-01-18T05:30:49.305Z,65.46
2019-01-18T05:33:20.831Z,65.78
2019-01-18T05:35:52.712Z,65.78
2019-01-18T05:38:24.327Z,65.29
2019-01-18T05:40:55.860Z,65.29
2019-01-18T05:43:27.459Z,64.06
2019-01-18T05:45:58.947Z,64.06
2019-01-18T05:48:30.309Z,62.54
2019-01-18T05:51:03.218Z,62.97
2019-01-18T05:53:34.602Z,62.76
2019-01-18T05:56:06.076Z,62.76
2019-01-18T05:58:37.260Z,62.09
2019-01-18T06:01:10.656Z,62.85
2019-01-18T06:03:42.131Z,62.85
2019-01-18T06:06:13.953Z,63.27
2019-01-18T06:08:45.176Z,63.17
2019-01-18T06:11:16.589Z,62.98
2019-01-18T06:13:48.223Z,62.99
2019-01-18T06:16:20.050Z,64.02
2019-01-18T06:18:51.881Z,64.01
2019-01-18T06:21:22.946Z,61.86
2019-01-18T06:23:54.800Z,61.86
2019-01-18T06:26:26.317Z,61.91
2019-01-18T06:28:57.536Z,61.39
2019-01-18T06:31:28.857Z,61.05
2019-01-18T06:34:00.549Z,57.12
2019-01-18T06:36:34.388Z,55.71
2019-01-18T06:39:08.265Z,55.71
2019-01-18T06:41:49.240Z,53.46
2019-01-18T06:44:20.473Z,54.35
2019-01-18T06:46:51.583Z,53.12
2019-01-18T06:49:22.781Z,53.92
2019-01-18T06:51:54.225Z,53.94
2019-01-18T06:54:25.796Z,55.03
2019-01-18T06:56:57.167Z,55.58
2019-01-18T06:59:29.247Z,55.67
2019-01-18T07:02:00.787Z,55.67
2019-01-18T07:04:32.119Z,58.70
2019-01-18T07:07:03.390Z,55.69
2019-01-18T07:09:35.117Z,55.69
2019-01-18T07:12:07.567Z,54.77
2019-01-18T07:14:39.274Z,54.33
2019-01-18T07:17:10.834Z,53.78
2019-01-18T07:19:42.277Z,53.78
2019-01-18T07:22:13.613Z,53.09
2019-01-18T07:24:45.293Z,53.69
2019-01-18T07:27:17.108Z,53.69
2019-01-18T07:29:48.826Z,52.50
2019-01-18T07:32:20.302Z,51.90
2019-01-18T07:34:51.575Z,50.94
2019-01-18T07:37:23.326Z,50.94
2019-01-18T07:39:55.307Z,49.95
2019-01-18T07:42:27.014Z,50.16
2019-01-18T07:44:58.695Z,50.16
2019-01-18T07:47:30.410Z,51.69
2019-01-18T07:50:01.988Z,49.98
2019-01-18T07:52:33.673Z,52.12
2019-01-18T07:55:07.670Z,52.12
2019-01-18T07:57:39.069Z,48.60
2019-01-18T08:00:19.771Z,48.60
2019-01-18T08:02:51.464Z,51.01
2019-01-18T08:05:24.297Z,50.54
2019-01-18T08:07:55.940Z,48.85
2019-01-18T08:10:27.769Z,48.85
2019-01-18T08:12:59.231Z,47.96
2019-01-18T08:15:31.903Z,49.16
2019-01-18T08:18:03.590Z,49.16
2019-01-18T08:20:35.247Z,45.37
2019-01-18T08:23:06.731Z,45.37
2019-01-18T08:25:38.126Z,49.47
2019-01-18T08:28:09.823Z,49.47
2019-01-18T08:30:41.459Z,47.26
2019-01-18T08:33:13.001Z,47.26
2019-01-18T08:35:44.613Z,44.94
2019-01-18T08:38:15.888Z,44.35
2019-01-18T08:40:47.481Z,44.35
2019-01-18T08:43:20.264Z,45.18
2019-01-18T08:45:57.066Z,44.23
2019-01-18T08:48:28.857Z,47.40
2019-01-18T08:51:00.053Z,45.72
2019-01-18T08:53:31.279Z,45.72
2019-01-18T08:56:03.339Z,45.11
2019-01-18T08:58:34.727Z,45.92
2019-01-18T09:01:06.583Z,46.33
2019-01-18T09:03:38.063Z,45.92
2019-01-18T09:06:09.807Z,48.38
2019-01-18T09:08:40.905Z,48.38
2019-01-18T09:11:12.479Z,47.82
2019-01-18T09:13:43.573Z,47.42
2019-01-18T09:16:15.226Z,47.42
2019-01-18T09:18:46.411Z,46.58
2019-01-18T09:21:18.329Z,46.58
2019-01-18T09:23:49.935Z,47.74
2019-01-18T09:26:21.896Z,47.38
2019-01-18T09:28:53.505Z,46.34
2019-01-18T09:31:25.343Z,46.34
2019-01-18T09:33:57.252Z,46.81
2019-01-18T09:36:28.694Z,47.01
2019-01-18T09:39:00.357Z,47.77
2019-01-18T09:41:31.901Z,47.78
2019-01-18T09:44:03.411Z,47.33
2019-01-18T09:46:34.798Z,47.62
2019-01-18T09:49:06.618Z,48.42
2019-01-18T09:51:38.266Z,47.24
2019-01-18T09:54:10.512Z,48.35
2019-01-18T09:56:42.626Z,47.92
2019-01-18T09:59:14.709Z,49.17
2019-01-18T10:01:49.481Z,49.17
2019-01-18T10:04:20.095Z,49.61
2019-01-18T10:06:52.443Z,48.76
2019-01-18T10:09:24.226Z,47.30
2019-01-18T10:11:56.119Z,47.76
2019-01-18T10:14:27.921Z,44.65
2019-01-18T10:17:02.520Z,46.20
2019-01-18T10:19:35.377Z,46.20
2019-01-18T10:22:07.140Z,46.19
2019-01-18T10:24:38.555Z,46.88
2019-01-18T10:27:10.013Z,46.93
2019-01-18T10:29:41.235Z,47.61
2019-01-18T10:32:12.589Z,48.20
2019-01-18T10:34:44.151Z,49.36
2019-01-18T10:37:15.568Z,49.25
2019-01-18T10:39:47.174Z,50.20
2019-01-18T10:42:18.770Z,49.83
2019-01-18T10:44:50.587Z,49.86
2019-01-18T10:47:22.077Z,49.86
2019-01-18T10:49:53.517Z,49.73
2019-01-18T10:52:25.194Z,49.66
2019-01-18T10:54:56.595Z,49.66
2019-01-18T10:57:28.086Z,50.36
2019-01-18T10:59:59.744Z,50.58
2019-01-18T11:02:31.464Z,51.83
2019-01-18T11:05:03.458Z,51.83
2019-01-18T11:07:35.121Z,51.43
2019-01-18T11:10:06.892Z,52.25
2019-01-18T11:12:38.218Z,51.84
2019-01-18T11:15:11.775Z,51.84
2019-01-18T11:17:43.507Z,52.31
2019-01-18T11:20:22.945Z,53.30
2019-01-18T11:22:58.150Z,53.34
2019-01-18T11:25:31.898Z,53.98
2019-01-18T11:28:02.224Z,53.92
2019-01-18T11:30:33.725Z,54.72
2019-01-18T11:33:05.308Z,54.97
2019-01-18T11:35:38.449Z,54.97
2019-01-18T11:38:10.011Z,54.67
2019-01-18T11:40:41.472Z,55.11
2019-01-18T11:43:13.110Z,55.24
2019-01-18T11:45:44.530Z,55.72
2019-01-18T11:48:16.235Z,55.72
2019-01-18T11:50:48.787Z,55.70
2019-01-18T11:53:20.052Z,56.01
2019-01-18T11:55:51.704Z,56.01
2019-01-18T11:58:23.280Z,56.18
2019-01-18T12:00:55.049Z,56.15
2019-01-18T12:03:26.420Z,56.69
2019-01-18T12:05:58.811Z,56.69
2019-01-18T12:08:30.232Z,56.94
2019-01-18T12:11:01.572Z,57.32
2019-01-18T12:13:33.352Z,57.55
2019-01-18T12:16:04.892Z,57.53
2019-01-18T12:18:36.385Z,58.10
2019-01-18T12:21:07.538Z,58.10
2019-01-18T12:23:39.072Z,58.35
2019-01-18T12:26:10.360Z,58.44
2019-01-18T12:28:41.734Z,58.34
2019-01-18T12:31:13.265Z,58.55
2019-01-18T12:33:44.394Z,58.55
2019-01-18T12:36:15.633Z,58.46
2019-01-18T12:38:46.961Z,58.78
2019-01-18T12:41:18.116Z,59.92
2019-01-18T12:43:49.403Z,60.08
2019-01-18T12:46:21.380Z,60.08
2019-01-18T12:48:53.453Z,59.97
2019-01-18T12:51:24.737Z,60.45
2019-01-18T12:53:56.315Z,60.94
2019-01-18T12:56:27.618Z,60.94
2019-01-18T12:58:58.829Z,60.85
2019-01-18T13:01:30.115Z,60.78
2019-01-18T13:04:01.584Z,61.44
2019-01-18T13:06:33.095Z,61.23
2019-01-18T13:09:05.967Z,61.90
2019-01-18T13:11:37.982Z,61.90
2019-01-18T13:14:09.212Z,62.35
2019-01-18T13:16:43.729Z,62.09
2019-01-18T13:19:23.182Z,61.88
2019-01-18T13:21:54.919Z,61.55
2019-01-18T13:24:27.062Z,61.88
2019-01-18T13:26:59.798Z,61.88
2019-01-18T13:29:31.192Z,61.90
2019-01-18T13:32:02.641Z,61.90
2019-01-18T13:34:34.189Z,62.33
2019-01-18T13:37:05.768Z,62.43
2019-01-18T13:39:37.126Z,62.15
2019-01-18T13:42:08.798Z,62.44
2019-01-18T13:44:43.708Z,62.22
2019-01-18T13:47:18.249Z,62.22
2019-01-18T13:49:46.604Z,62.37
2019-01-18T13:52:21.552Z,63.15
2019-01-18T13:54:53.212Z,63.15
2019-01-18T13:57:24.890Z,63.32
2019-01-18T13:59:56.594Z,63.62
2019-01-18T14:02:29.693Z,63.41
2019-01-18T14:05:00.947Z,63.86
2019-01-18T14:07:32.862Z,63.86
2019-01-18T14:10:04.758Z,63.64
2019-01-18T14:12:37.133Z,63.59
2019-01-18T14:15:09.076Z,63.20
2019-01-18T14:17:40.533Z,62.86
2019-01-18T14:20:13.894Z,63.04
2019-01-18T14:22:45.384Z,63.04
2019-01-18T14:25:16.800Z,63.39
2019-01-18T14:27:48.494Z,63.35
2019-01-18T14:30:22.513Z,63.29
2019-01-18T14:32:55.582Z,63.52
2019-01-18T14:35:27.244Z,63.87
2019-01-18T14:37:58.503Z,63.97
2019-01-18T14:40:30.037Z,63.97
2019-01-18T14:43:01.714Z,64.55
2019-01-18T14:45:36.733Z,65.12
2019-01-18T14:48:08.675Z,65.12
2019-01-18T14:50:40.327Z,65.59
2019-01-18T14:53:12.031Z,64.82
2019-01-18T14:55:43.376Z,64.66
2019-01-18T14:58:15.328Z,64.66
2019-01-18T15:00:46.718Z,64.96
2019-01-18T15:03:18.865Z,64.77
2019-01-18T15:05:50.401Z,64.77
2019-01-18T15:08:24.300Z,65.73
2019-01-18T15:10:55.920Z,65.76
2019-01-18T15:13:27.465Z,65.99
2019-01-18T15:15:59.435Z,66.11
2019-01-18T15:18:31.038Z,66.08
2019-01-18T15:21:02.466Z,65.78
2019-01-18T15:23:33.773Z,65.78
2019-01-18T15:26:05.642Z,65.54
2019-01-18T15:28:44.594Z,65.53
2019-01-18T15:31:15.888Z,65.60
2019-01-18T15:33:47.824Z,65.28
2019-01-18T15:36:19.208Z,65.28
2019-01-18T15:38:51.477Z,65.28
2019-01-18T15:41:22.859Z,65.78
2019-01-18T15:43:55.601Z,65.97
2019-01-18T15:46:27.219Z,68.22
2019-01-18T15:48:58.628Z,70.54
2019-01-18T15:51:29.706Z,70.74
2019-01-18T15:54:01.610Z,71.14
2019-01-18T15:56:33.126Z,70.52
2019-01-18T15:59:04.795Z,70.81
2019-01-18T16:01:36.361Z,70.81
2019-01-18T16:04:09.073Z,71.12
2019-01-18T16:06:40.630Z,71.28
2019-01-18T16:09:12.783Z,71.54
2019-01-18T16:11:44.250Z,71.76
2019-01-18T16:14:15.734Z,71.94
2019-01-18T16:16:56.802Z,71.94
2019-01-18T16:19:28.596Z,72.84
2019-01-18T16:22:00.253Z,73.10
2019-01-18T16:24:31.765Z,73.10
2019-01-18T16:27:03.469Z,73.08
2019-01-18T16:29:34.763Z,73.02
2019-01-18T16:32:06.503Z,72.97
2019-01-18T16:34:37.993Z,72.97
2019-01-18T16:37:09.362Z,72.73
2019-01-18T16:39:41.443Z,72.41
2019-01-18T16:42:15.443Z,72.41
2019-01-18T16:44:47.184Z,72.62
2019-01-18T16:47:18.470Z,72.65
2019-01-18T16:49:49.871Z,72.65
2019-01-18T16:52:21.116Z,73.31
2019-01-18T16:54:52.607Z,73.77
2019-01-18T16:57:23.965Z,73.83
2019-01-18T16:59:55.444Z,73.83
2019-01-18T17:02:26.668Z,73.72
2019-01-18T17:04:58.191Z,73.71
2019-01-18T17:07:29.737Z,73.60
2019-01-18T17:10:01.740Z,73.48
2019-01-18T17:12:32.851Z,73.48
2019-01-18T17:15:04.767Z,73.53
2019-01-18T17:17:36.359Z,73.47
2019-01-18T17:20:12.544Z,73.47
2019-01-18T17:22:43.987Z,73.82
2019-01-18T17:25:17.476Z,74.05
2019-01-18T17:27:49.232Z,74.05
2019-01-18T17:30:21.186Z,74.10
2019-01-18T17:32:52.853Z,73.74
2019-01-18T17:35:33.471Z,73.29
2019-01-18T17:38:29.101Z,73.29
2019-01-18T17:41:45.988Z,74.03
2019-01-18T17:45:06.821Z,73.75
2019-01-18T17:48:25.075Z,73.85
2019-01-18T17:51:24.749Z,73.85
2019-01-18T17:54:22.963Z,74.07
2019-01-18T17:57:40.800Z,74.19
2019-01-18T18:00:48.612Z,74.19
2019-01-18T18:03:55.232Z,74.10
2019-01-18T18:07:07.392Z,74.17
2019-01-18T18:10:11.188Z,74.14
2019-01-18T18:13:30.090Z,74.91
2019-01-18T18:16:32.504Z,75.03
2019-01-18T18:19:30.949Z,75.03
2019-01-18T18:22:36.685Z,74.49
2019-01-18T18:25:35.836Z,74.49
2019-01-18T18:28:37.327Z,74.88
2019-01-18T18:31:23.446Z,75.37
2019-01-18T18:34:14.786Z,75.35
2019-01-18T18:37:15.978Z,75.22
2019-01-18T18:40:52.258Z,74.67
2019-01-18T18:43:50.350Z,74.47
2019-01-18T18:46:43.873Z,74.59
2019-01-18T18:49:28.573Z,74.59
2019-01-18T18:52:39.705Z,75.13
2019-01-18T18:55:30.403Z,75.44
2019-01-18T18:58:38.128Z,75.44
2019-01-18T19:01:52.569Z,76.40
2019-01-18T19:04:56.356Z,75.91
2019-01-18T19:07:46.232Z,76.30
2019-01-18T19:10:39.372Z,75.84
2019-01-18T19:13:44.985Z,76.59
2019-01-18T19:16:47.651Z,76.07
2019-01-18T19:19:46.559Z,76.07
2019-01-18T19:22:53.746Z,77.39
2019-01-18T19:25:49.597Z,77.39
2019-01-18T19:28:52.498Z,77.37
2019-01-18T19:31:55.341Z,76.94
2019-01-18T19:35:05.088Z,76.34
2019-01-18T19:38:27.730Z,76.34
2019-01-18T19:41:41.880Z,76.27
2019-01-18T19:44:41.728Z,76.66
2019-01-18T19:47:39.289Z,76.62
2019-01-18T19:50:52.655Z,77.47
2019-01-18T19:53:49.147Z,77.12
2019-01-18T19:56:58.686Z,77.12
2019-01-18T19:59:57.078Z,76.67
2019-01-18T20:03:00.557Z,76.67
2019-01-18T20:06:12.493Z,76.94
2019-01-18T20:09:13.597Z,76.64
2019-01-18T20:12:22.728Z,77.35
2019-01-18T20:15:17.313Z,77.35
2019-01-18T20:18:29.333Z,77.58
2019-01-18T20:21:36.103Z,77.18
2019-01-18T20:24:45.664Z,77.14
2019-01-18T20:27:57.123Z,77.14
2019-01-18T20:31:13.194Z,77.54
2019-01-18T20:34:20.175Z,76.27
2019-01-18T20:37:24.452Z,76.27
2019-01-18T20:40:42.155Z,76.99
2019-01-18T20:43:48.321Z,76.99
2019-01-18T20:46:55.124Z,77.11
2019-01-18T20:49:50.442Z,77.11
2019-01-18T20:52:59.504Z,77.06
2019-01-18T20:55:54.790Z,77.06
2019-01-18T20:58:56.704Z,76.53
2019-01-18T21:02:01.548Z,76.45
2019-01-18T21:05:25.220Z,77.61
2019-01-18T21:08:46.331Z,76.23
2019-01-18T21:11:42.053Z,76.23
2019-01-18T21:14:43.302Z,76.07
2019-01-18T21:17:59.837Z,76.34
2019-01-18T21:21:30.247Z,76.91
2019-01-18T21:24:44.899Z,76.91
2019-01-18T21:28:02.742Z,76.76
2019-01-18T21:31:15.996Z,77.64
2019-01-18T21:34:24.995Z,76.88
2019-01-18T21:37:44.483Z,76.24
2019-01-18T21:40:43.703Z,76.96
2019-01-18T21:44:08.067Z,76.63
2019-01-18T21:47:11.972Z,76.86
2019-01-18T21:50:00.650Z,76.86
2019-01-18T21:53:15.887Z,76.37
2019-01-18T21:56:27.129Z,77.25
2019-01-18T21:59:25.160Z,78.36
2019-01-18T22:02:22.399Z,78.36
2019-01-18T22:05:11.818Z,77.08
2019-01-18T22:07:51.144Z,77.08
2019-01-18T22:10:40.948Z,77.00
2019-01-18T22:13:42.884Z,76.98
2019-01-18T22:16:50.246Z,77.18
2019-01-18T22:20:11.280Z,77.23
2019-01-18T22:23:16.738Z,76.62
2019-01-18T22:26:18.781Z,76.06
2019-01-18T22:29:23.228Z,76.66
2019-01-18T22:32:35.117Z,76.66
2019-01-18T22:35:41.607Z,76.29
2019-01-18T22:38:52.242Z,77.00
2019-01-18T22:42:04.970Z,76.87
2019-01-18T22:45:09.668Z,76.40
2019-01-18T22:48:45.517Z,76.40
2019-01-18T22:51:58.353Z,76.18
2019-01-18T22:55:06.690Z,76.30
2019-01-18T22:58:17.144Z,76.66
2019-01-18T23:01:20.003Z,76.66
2019-01-18T23:04:29.888Z,77.20
2019-01-18T23:07:24.382Z,78.04
2019-01-18T23:10:57.766Z,78.04
2019-01-18T23:14:15.618Z,78.15
2019-01-18T23:17:32.032Z,78.35
2019-01-18T23:20:41.642Z,78.35
2019-01-18T23:23:54.469Z,77.97
2019-01-18T23:27:23.743Z,78.47
2019-01-18T23:30:40.931Z,78.71
2019-01-18T23:33:36.078Z,78.71
2019-01-18T23:36:34.702Z,78.28
2019-01-18T23:39:25.538Z,78.28
2019-01-18T23:42:42.596Z,78.87
2019-01-18T23:45:42.097Z,78.62
2019-01-18T23:48:48.930Z,78.51
2019-01-18T23:51:53.441Z,78.02
2019-01-18T23:55:14.952Z,78.02
2019-01-18T23:58:07.817Z,78.50
